sensor_id;sensor_type;location;lat;lon;timestamp;pressure;altitude;pressure_sealevel;temperature;humidity
10176;BME280;18221;38.704;0.152;2023-04-19T00:04:36;98805.47;;;19.66;44.99
10176;BME280;18221;38.704;0.152;2023-04-19T00:07:05;98799.06;;;19.67;44.90
10176;BME280;18221;38.704;0.152;2023-04-19T00:09:34;98803.63;;;19.60;45.05
10176;BME280;18221;38.704;0.152;2023-04-19T00:12:03;98806.06;;;19.55;45.07
10176;BME280;18221;38.704;0.152;2023-04-19T00:14:33;98802.34;;;19.56;45.18
10176;BME280;18221;38.704;0.152;2023-04-19T00:17:01;98806.06;;;19.55;45.25
10176;BME280;18221;38.704;0.152;2023-04-19T00:19:37;98803.59;;;19.54;45.36
10176;BME280;18221;38.704;0.152;2023-04-19T00:22:12;98803.59;;;19.54;45.35
10176;BME280;18221;38.704;0.152;2023-04-19T00:24:40;98798.59;;;19.51;45.40
10176;BME280;18221;38.704;0.152;2023-04-19T00:27:08;98793.25;;;19.57;45.37
10176;BME280;18221;38.704;0.152;2023-04-19T00:29:36;98795.50;;;19.47;45.59
10176;BME280;18221;38.704;0.152;2023-04-19T00:32:05;98789.03;;;19.42;45.63
10176;BME280;18221;38.704;0.152;2023-04-19T00:34:35;98781.53;;;19.37;45.83
10176;BME280;18221;38.704;0.152;2023-04-19T00:37:04;98778.00;;;19.37;45.93
10176;BME280;18221;38.704;0.152;2023-04-19T00:39:32;98777.56;;;19.33;45.82
10176;BME280;18221;38.704;0.152;2023-04-19T00:42:01;98773.66;;;19.36;45.80
10176;BME280;18221;38.704;0.152;2023-04-19T00:44:29;98768.25;;;19.36;45.86
10176;BME280;18221;38.704;0.152;2023-04-19T00:46:59;98772.19;;;19.33;45.83
10176;BME280;18221;38.704;0.152;2023-04-19T00:49:28;98768.03;;;19.31;45.70
10176;BME280;18221;38.704;0.152;2023-04-19T00:51:58;98769.44;;;19.27;45.96
10176;BME280;18221;38.704;0.152;2023-04-19T00:54:27;98762.03;;;19.29;45.92
10176;BME280;18221;38.704;0.152;2023-04-19T00:56:58;98759.69;;;19.19;45.62
10176;BME280;18221;38.704;0.152;2023-04-19T00:59:29;98755.97;;;19.20;45.99
10176;BME280;18221;38.704;0.152;2023-04-19T01:01:58;98754.53;;;19.18;45.90
10176;BME280;18221;38.704;0.152;2023-04-19T01:04:27;98756.22;;;19.25;45.85
10176;BME280;18221;38.704;0.152;2023-04-19T01:06:57;98756.44;;;19.30;45.78
10176;BME280;18221;38.704;0.152;2023-04-19T01:09:25;98748.53;;;19.22;45.99
10176;BME280;18221;38.704;0.152;2023-04-19T01:11:54;98737.75;;;19.22;45.94
10176;BME280;18221;38.704;0.152;2023-04-19T01:14:53;98734.66;;;19.25;45.95
10176;BME280;18221;38.704;0.152;2023-04-19T01:17:30;98733.44;;;19.28;45.90
10176;BME280;18221;38.704;0.152;2023-04-19T01:19:59;98743.34;;;19.21;45.94
10176;BME280;18221;38.704;0.152;2023-04-19T01:22:30;98733.19;;;19.16;45.97
10176;BME280;18221;38.704;0.152;2023-04-19T01:24:59;98723.84;;;19.12;46.00
10176;BME280;18221;38.704;0.152;2023-04-19T01:27:27;98726.94;;;19.09;46.13
10176;BME280;18221;38.704;0.152;2023-04-19T01:30:07;98729.19;;;18.99;46.69
10176;BME280;18221;38.704;0.152;2023-04-19T01:35:44;98719.81;;;18.88;47.25
10176;BME280;18221;38.704;0.152;2023-04-19T01:38:14;98722.94;;;18.92;47.16
10176;BME280;18221;38.704;0.152;2023-04-19T01:40:43;98726.25;;;18.94;47.17
10176;BME280;18221;38.704;0.152;2023-04-19T01:43:13;98726.66;;;18.91;47.26
10176;BME280;18221;38.704;0.152;2023-04-19T01:45:42;98725.84;;;18.97;47.02
10176;BME280;18221;38.704;0.152;2023-04-19T01:48:10;98715.25;;;18.89;47.43
10176;BME280;18221;38.704;0.152;2023-04-19T01:50:39;98721.50;;;18.96;47.50
10176;BME280;18221;38.704;0.152;2023-04-19T01:53:25;98719.81;;;18.88;47.30
10176;BME280;18221;38.704;0.152;2023-04-19T01:55:55;98721.03;;;18.86;47.27
10176;BME280;18221;38.704;0.152;2023-04-19T01:58:24;98719.75;;;18.75;47.57
10176;BME280;18221;38.704;0.152;2023-04-19T02:01:24;98715.41;;;18.81;47.58
10176;BME280;18221;38.704;0.152;2023-04-19T02:04:02;98714.97;;;18.77;47.65
10176;BME280;18221;38.704;0.152;2023-04-19T02:06:30;98718.50;;;18.78;47.56
10176;BME280;18221;38.704;0.152;2023-04-19T02:09:00;98720.41;;;18.84;47.42
10176;BME280;18221;38.704;0.152;2023-04-19T02:11:39;98711.88;;;18.74;47.22
10176;BME280;18221;38.704;0.152;2023-04-19T02:14:10;98709.59;;;18.71;47.39
10176;BME280;18221;38.704;0.152;2023-04-19T02:16:40;98715.34;;;18.68;47.40
10176;BME280;18221;38.704;0.152;2023-04-19T02:19:08;98716.63;;;18.72;47.28
10176;BME280;18221;38.704;0.152;2023-04-19T02:21:37;98713.94;;;18.72;47.16
10176;BME280;18221;38.704;0.152;2023-04-19T02:24:07;98715.34;;;18.68;47.14
10176;BME280;18221;38.704;0.152;2023-04-19T02:26:35;98714.09;;;18.64;47.00
10176;BME280;18221;38.704;0.152;2023-04-19T02:29:04;98708.31;;;18.67;46.87
10176;BME280;18221;38.704;0.152;2023-04-19T02:31:32;98714.44;;;18.54;47.21
10176;BME280;18221;38.704;0.152;2023-04-19T02:34:01;98712.81;;;18.60;47.26
10176;BME280;18221;38.704;0.152;2023-04-19T02:36:29;98718.63;;;18.63;47.40
10176;BME280;18221;38.704;0.152;2023-04-19T02:38:57;98713.25;;;18.63;47.48
10176;BME280;18221;38.704;0.152;2023-04-19T02:41:27;98710.75;;;18.62;47.55
10176;BME280;18221;38.704;0.152;2023-04-19T02:43:55;98710.13;;;18.60;47.50
10176;BME280;18221;38.704;0.152;2023-04-19T02:46:24;98707.66;;;18.58;47.97
10176;BME280;18221;38.704;0.152;2023-04-19T02:48:52;98708.06;;;18.62;47.75
10176;BME280;18221;38.704;0.152;2023-04-19T02:51:20;98711.66;;;18.69;47.72
10176;BME280;18221;38.704;0.152;2023-04-19T02:53:49;98712.81;;;18.60;47.75
10176;BME280;18221;38.704;0.152;2023-04-19T02:56:17;98712.44;;;18.63;47.67
10176;BME280;18221;38.704;0.152;2023-04-19T02:58:47;98715.34;;;18.68;47.56
10176;BME280;18221;38.704;0.152;2023-04-19T03:01:16;98713.44;;;18.62;47.80
10176;BME280;18221;38.704;0.152;2023-04-19T03:03:44;98711.97;;;18.59;47.91
10176;BME280;18221;38.704;0.152;2023-04-19T03:06:12;98707.50;;;18.66;47.71
10176;BME280;18221;38.704;0.152;2023-04-19T03:08:42;98709.88;;;18.55;47.90
10176;BME280;18221;38.704;0.152;2023-04-19T03:11:11;98705.75;;;18.52;47.83
10176;BME280;18221;38.704;0.152;2023-04-19T03:13:40;98715.88;;;18.50;48.01
10176;BME280;18221;38.704;0.152;2023-04-19T03:16:12;98716.81;;;18.42;48.12
10176;BME280;18221;38.704;0.152;2023-04-19T03:18:42;98710.72;;;18.27;48.44
10176;BME280;18221;38.704;0.152;2023-04-19T03:21:10;98718.28;;;18.17;48.70
10176;BME280;18221;38.704;0.152;2023-04-19T03:23:43;98710.88;;;18.19;48.77
10176;BME280;18221;38.704;0.152;2023-04-19T03:26:12;98712.34;;;18.22;48.36
10176;BME280;18221;38.704;0.152;2023-04-19T03:28:40;98708.75;;;18.15;48.71
10176;BME280;18221;38.704;0.152;2023-04-19T03:31:10;98707.41;;;18.04;48.96
10176;BME280;18221;38.704;0.152;2023-04-19T03:33:39;98706.53;;;17.97;49.13
10176;BME280;18221;38.704;0.152;2023-04-19T03:36:08;98702.00;;;17.98;49.14
10176;BME280;18221;38.704;0.152;2023-04-19T03:40:47;98700.03;;;17.85;49.27
10176;BME280;18221;38.704;0.152;2023-04-19T03:41:48;98699.78;;;17.80;49.55
10176;BME280;18221;38.704;0.152;2023-04-19T03:44:40;98696.00;;;17.74;49.79
10176;BME280;18221;38.704;0.152;2023-04-19T03:47:19;98695.00;;;17.54;50.22
10176;BME280;18221;38.704;0.152;2023-04-19T03:49:50;98697.53;;;17.26;50.98
10176;BME280;18221;38.704;0.152;2023-04-19T03:52:21;98697.53;;;17.26;50.94
10176;BME280;18221;38.704;0.152;2023-04-19T03:54:51;98699.28;;;17.34;50.95
10176;BME280;18221;38.704;0.152;2023-04-19T03:57:20;98702.63;;;17.36;50.63
10176;BME280;18221;38.704;0.152;2023-04-19T03:59:48;98701.28;;;17.47;50.68
10176;BME280;18221;38.704;0.152;2023-04-19T04:02:19;98711.00;;;17.12;51.17
10176;BME280;18221;38.704;0.152;2023-04-19T04:04:52;98706.22;;;17.07;51.73
10176;BME280;18221;38.704;0.152;2023-04-19T04:07:22;98709.88;;;17.21;51.38
10176;BME280;18221;38.704;0.152;2023-04-19T04:09:51;98702.31;;;17.10;51.44
10176;BME280;18221;38.704;0.152;2023-04-19T04:12:20;98700.19;;;17.05;51.48
10176;BME280;18221;38.704;0.152;2023-04-19T04:14:48;98696.97;;;17.10;51.35
10176;BME280;18221;38.704;0.152;2023-04-19T04:17:18;98700.19;;;17.05;51.77
10176;BME280;18221;38.704;0.152;2023-04-19T04:19:46;98696.81;;;16.97;51.94
10176;BME280;18221;38.704;0.152;2023-04-19T04:22:15;98690.22;;;16.99;51.66
10176;BME280;18221;38.704;0.152;2023-04-19T04:24:44;98695.13;;;16.96;52.07
10176;BME280;18221;38.704;0.152;2023-04-19T04:27:13;98695.69;;;16.77;52.43
10176;BME280;18221;38.704;0.152;2023-04-19T04:29:45;98689.69;;;16.89;52.29
10176;BME280;18221;38.704;0.152;2023-04-19T04:32:15;98691.34;;;16.90;52.28
10176;BME280;18221;38.704;0.152;2023-04-19T04:34:45;98687.47;;;16.78;52.55
10176;BME280;18221;38.704;0.152;2023-04-19T04:37:13;98688.50;;;16.77;52.80
10176;BME280;18221;38.704;0.152;2023-04-19T04:39:43;98682.38;;;16.68;52.61
10176;BME280;18221;38.704;0.152;2023-04-19T04:42:12;98692.66;;;16.65;53.08
10176;BME280;18221;38.704;0.152;2023-04-19T04:44:40;98689.06;;;16.58;53.35
10176;BME280;18221;38.704;0.152;2023-04-19T04:47:08;98699.97;;;16.56;53.35
10176;BME280;18221;38.704;0.152;2023-04-19T04:49:36;98694.88;;;16.76;52.89
10176;BME280;18221;38.704;0.152;2023-04-19T04:52:06;98694.97;;;16.83;52.29
10176;BME280;18221;38.704;0.152;2023-04-19T04:54:35;98691.53;;;16.74;52.50
10176;BME280;18221;38.704;0.152;2023-04-19T04:57:04;98690.16;;;16.63;52.85
10176;BME280;18221;38.704;0.152;2023-04-19T04:59:32;98696.28;;;16.57;53.11
10176;BME280;18221;38.704;0.152;2023-04-19T05:02:00;98701.72;;;16.64;52.96
10176;BME280;18221;38.704;0.152;2023-04-19T05:04:29;98702.00;;;16.69;53.10
10176;BME280;18221;38.704;0.152;2023-04-19T05:06:57;98709.31;;;16.75;52.64
10176;BME280;18221;38.704;0.152;2023-04-19T05:09:27;98704.03;;;16.67;52.82
10176;BME280;18221;38.704;0.152;2023-04-19T05:11:56;98697.84;;;16.81;52.51
10176;BME280;18221;38.704;0.152;2023-04-19T05:14:24;98703.66;;;16.85;52.28
10176;BME280;18221;38.704;0.152;2023-04-19T05:16:53;98714.75;;;16.96;52.42
10176;BME280;18221;38.704;0.152;2023-04-19T05:19:21;98712.97;;;17.03;52.07
10176;BME280;18221;38.704;0.152;2023-04-19T05:21:50;98724.59;;;17.10;51.81
10176;BME280;18221;38.704;0.152;2023-04-19T05:24:18;98719.53;;;17.37;51.18
10176;BME280;18221;38.704;0.152;2023-04-19T05:26:49;98724.91;;;17.37;51.08
10176;BME280;18221;38.704;0.152;2023-04-19T05:29:17;98726.78;;;17.36;50.87
10176;BME280;18221;38.704;0.152;2023-04-19T05:31:46;98712.97;;;17.03;51.46
10176;BME280;18221;38.704;0.152;2023-04-19T05:34:14;98714.66;;;16.75;52.23
10176;BME280;18221;38.704;0.152;2023-04-19T05:36:43;98713.78;;;16.45;53.37
10176;BME280;18221;38.704;0.152;2023-04-19T05:39:11;98717.38;;;16.60;53.31
10176;BME280;18221;38.704;0.152;2023-04-19T05:41:39;98721.03;;;16.59;53.28
10176;BME280;18221;38.704;0.152;2023-04-19T05:44:09;98732.97;;;16.57;53.36
10176;BME280;18221;38.704;0.152;2023-04-19T05:46:38;98734.81;;;16.56;53.13
10176;BME280;18221;38.704;0.152;2023-04-19T05:49:06;98735.94;;;16.62;52.97
10176;BME280;18221;38.704;0.152;2023-04-19T05:51:34;98749.78;;;16.80;52.52
10176;BME280;18221;38.704;0.152;2023-04-19T05:54:03;98746.56;;;16.70;52.93
10176;BME280;18221;38.704;0.152;2023-04-19T05:56:32;98742.31;;;16.76;52.88
10176;BME280;18221;38.704;0.152;2023-04-19T05:59:00;98745.63;;;16.78;52.50
10176;BME280;18221;38.704;0.152;2023-04-19T06:01:30;98747.09;;;16.95;52.20
10176;BME280;18221;38.704;0.152;2023-04-19T06:03:59;98752.66;;;16.93;52.11
10176;BME280;18221;38.704;0.152;2023-04-19T06:06:27;98750.44;;;16.82;52.38
10176;BME280;18221;38.704;0.152;2023-04-19T06:08:56;98764.56;;;17.05;52.09
10176;BME280;18221;38.704;0.152;2023-04-19T06:11:24;98763.94;;;17.03;51.87
10176;BME280;18221;38.704;0.152;2023-04-19T06:13:53;98762.41;;;17.15;51.42
10176;BME280;18221;38.704;0.152;2023-04-19T06:16:21;98766.50;;;17.11;51.52
10176;BME280;18221;38.704;0.152;2023-04-19T06:18:52;98767.19;;;16.99;51.58
10176;BME280;18221;38.704;0.152;2023-04-19T06:21:20;98762.28;;;16.88;52.02
10176;BME280;18221;38.704;0.152;2023-04-19T06:23:49;98762.66;;;16.99;52.18
10176;BME280;18221;38.704;0.152;2023-04-19T06:26:17;98770.78;;;17.06;51.77
10176;BME280;18221;38.704;0.152;2023-04-19T06:28:46;98767.91;;;17.07;51.46
10176;BME280;18221;38.704;0.152;2023-04-19T06:31:15;98775.19;;;17.13;51.53
10176;BME280;18221;38.704;0.152;2023-04-19T06:33:43;98766.94;;;17.29;51.06
10176;BME280;18221;38.704;0.152;2023-04-19T06:36:13;98777.53;;;17.16;51.59
10176;BME280;18221;38.704;0.152;2023-04-19T06:38:41;98773.06;;;17.23;51.21
10176;BME280;18221;38.704;0.152;2023-04-19T06:41:12;98765.09;;;17.30;51.33
10176;BME280;18221;38.704;0.152;2023-04-19T06:43:40;98772.44;;;17.07;51.54
10176;BME280;18221;38.704;0.152;2023-04-19T06:46:10;98767.91;;;17.07;52.15
10176;BME280;18221;38.704;0.152;2023-04-19T06:48:39;98764.38;;;16.92;52.40
10176;BME280;18221;38.704;0.152;2023-04-19T06:51:08;98759.78;;;17.01;52.18
10176;BME280;18221;38.704;0.152;2023-04-19T06:53:38;98763.94;;;17.18;51.78
10176;BME280;18221;38.704;0.152;2023-04-19T06:56:06;98761.59;;;17.29;51.53
10176;BME280;18221;38.704;0.152;2023-04-19T06:58:36;98759.75;;;17.15;51.63
10176;BME280;18221;38.704;0.152;2023-04-19T07:01:05;98760.50;;;17.09;52.37
10176;BME280;18221;38.704;0.152;2023-04-19T07:03:33;98757.31;;;17.35;51.61
10176;BME280;18221;38.704;0.152;2023-04-19T07:06:03;98754.06;;;17.40;51.58
10176;BME280;18221;38.704;0.152;2023-04-19T07:08:31;98760.84;;;17.21;51.91
10176;BME280;18221;38.704;0.152;2023-04-19T07:11:01;98766.47;;;17.26;52.27
10176;BME280;18221;38.704;0.152;2023-04-19T07:13:29;98765.28;;;17.28;52.01
10176;BME280;18221;38.704;0.152;2023-04-19T07:15:58;98760.91;;;17.42;51.98
10176;BME280;18221;38.704;0.152;2023-04-19T07:18:26;98761.53;;;17.59;51.52
10176;BME280;18221;38.704;0.152;2023-04-19T07:20:55;98754.75;;;18.05;50.60
10176;BME280;18221;38.704;0.152;2023-04-19T07:23:23;98752.31;;;18.31;49.83
10176;BME280;18221;38.704;0.152;2023-04-19T07:25:51;98749.31;;;18.69;48.96
10176;BME280;18221;38.704;0.152;2023-04-19T07:28:21;98761.44;;;18.92;47.99
10176;BME280;18221;38.704;0.152;2023-04-19T07:30:49;98758.63;;;19.07;46.98
10176;BME280;18221;38.704;0.152;2023-04-19T07:33:18;98763.72;;;18.95;47.49
10176;BME280;18221;38.704;0.152;2023-04-19T07:35:46;98757.50;;;19.36;46.59
10176;BME280;18221;38.704;0.152;2023-04-19T07:38:15;98767.69;;;20.27;44.71
10176;BME280;18221;38.704;0.152;2023-04-19T07:40:43;98771.00;;;20.55;43.86
10176;BME280;18221;38.704;0.152;2023-04-19T07:43:12;98763.94;;;20.67;43.17
10176;BME280;18221;38.704;0.152;2023-04-19T07:45:42;98763.84;;;20.93;42.40
10176;BME280;18221;38.704;0.152;2023-04-19T07:48:10;98775.56;;;20.48;42.74
10176;BME280;18221;38.704;0.152;2023-04-19T07:50:38;98767.47;;;20.35;43.23
10176;BME280;18221;38.704;0.152;2023-04-19T07:53:07;98776.41;;;20.29;43.60
10176;BME280;18221;38.704;0.152;2023-04-19T07:55:35;98776.41;;;20.42;43.72
10176;BME280;18221;38.704;0.152;2023-04-19T07:58:03;98766.41;;;20.49;43.03
10176;BME280;18221;38.704;0.152;2023-04-19T08:00:32;98774.50;;;20.10;43.67
10176;BME280;18221;38.704;0.152;2023-04-19T08:03:04;98762.25;;;20.01;43.74
10176;BME280;18221;38.704;0.152;2023-04-19T08:05:33;98774.63;;;19.69;44.26
10176;BME280;18221;38.704;0.152;2023-04-19T08:08:01;98770.06;;;19.63;44.84
10176;BME280;18221;38.704;0.152;2023-04-19T08:10:30;98768.31;;;19.42;45.62
10176;BME280;18221;38.704;0.152;2023-04-19T08:12:59;98771.66;;;19.44;45.60
10176;BME280;18221;38.704;0.152;2023-04-19T08:15:27;98773.69;;;19.42;45.71
10176;BME280;18221;38.704;0.152;2023-04-19T08:17:55;98764.25;;;19.59;45.41
10176;BME280;18221;38.704;0.152;2023-04-19T08:20:25;98751.13;;;19.43;45.42
10176;BME280;18221;38.704;0.152;2023-04-19T08:22:54;98762.69;;;19.37;45.68
10176;BME280;18221;38.704;0.152;2023-04-19T08:25:22;98763.34;;;19.39;45.49
10176;BME280;18221;38.704;0.152;2023-04-19T08:27:52;98778.59;;;19.26;45.59
10176;BME280;18221;38.704;0.152;2023-04-19T08:30:21;98782.09;;;19.26;45.73
10176;BME280;18221;38.704;0.152;2023-04-19T08:32:49;98780.88;;;19.35;45.51
10176;BME280;18221;38.704;0.152;2023-04-19T08:35:18;98774.03;;;19.26;46.04
10176;BME280;18221;38.704;0.152;2023-04-19T08:37:49;98784.28;;;19.50;45.53
10176;BME280;18221;38.704;0.152;2023-04-19T08:40:17;98792.97;;;19.46;45.47
10176;BME280;18221;38.704;0.152;2023-04-19T08:42:45;98779.13;;;19.55;45.34
10176;BME280;18221;38.704;0.152;2023-04-19T08:45:18;98782.72;;;19.76;44.67
10176;BME280;18221;38.704;0.152;2023-04-19T08:47:49;98794.59;;;19.94;44.21
10176;BME280;18221;38.704;0.152;2023-04-19T08:50:20;98797.06;;;19.89;44.85
10176;BME280;18221;38.704;0.152;2023-04-19T08:52:50;98790.84;;;19.89;44.68
10176;BME280;18221;38.704;0.152;2023-04-19T08:55:19;98793.13;;;19.92;44.50
10176;BME280;18221;38.704;0.152;2023-04-19T08:57:47;98796.25;;;20.02;44.67
10176;BME280;18221;38.704;0.152;2023-04-19T09:00:17;98794.66;;;20.40;43.75
10176;BME280;18221;38.704;0.152;2023-04-19T09:02:47;98799.63;;;20.30;43.61
10176;BME280;18221;38.704;0.152;2023-04-19T09:05:17;98802.13;;;20.31;42.96
10176;BME280;18221;38.704;0.152;2023-04-19T09:08:25;98817.19;;;20.13;43.10
10176;BME280;18221;38.704;0.152;2023-04-19T09:10:55;98809.59;;;20.36;43.00
10176;BME280;18221;38.704;0.152;2023-04-19T09:13:25;98807.13;;;20.67;42.85
10176;BME280;18221;38.704;0.152;2023-04-19T09:15:54;98800.03;;;20.47;43.54
10176;BME280;18221;38.704;0.152;2023-04-19T09:18:26;98817.69;;;20.36;42.58
10176;BME280;18221;38.704;0.152;2023-04-19T09:20:54;98809.38;;;20.51;42.74
10176;BME280;18221;38.704;0.152;2023-04-19T09:23:27;98808.97;;;20.60;42.91
10176;BME280;18221;38.704;0.152;2023-04-19T09:25:57;98811.03;;;20.45;42.49
10176;BME280;18221;38.704;0.152;2023-04-19T09:28:27;98818.50;;;20.63;42.35
10176;BME280;18221;38.704;0.152;2023-04-19T09:30:57;98825.56;;;20.64;41.74
10176;BME280;18221;38.704;0.152;2023-04-19T09:33:36;98821.41;;;20.35;42.68
10176;BME280;18221;38.704;0.152;2023-04-19T09:36:07;98822.25;;;20.49;43.29
10176;BME280;18221;38.704;0.152;2023-04-19T09:38:48;98815.59;;;20.58;42.78
10176;BME280;18221;38.704;0.152;2023-04-19T09:41:17;98815.22;;;20.67;42.83
10176;BME280;18221;38.704;0.152;2023-04-19T09:43:45;98804.19;;;20.56;42.93
10176;BME280;18221;38.704;0.152;2023-04-19T09:46:32;98822.25;;;20.75;42.53
10176;BME280;18221;38.704;0.152;2023-04-19T09:49:18;98821.84;;;20.71;42.06
10176;BME280;18221;38.704;0.152;2023-04-19T09:51:51;98813.31;;;20.68;41.16
10176;BME280;18221;38.704;0.152;2023-04-19T09:54:24;98819.53;;;20.94;40.51
10176;BME280;18221;38.704;0.152;2023-04-19T09:56:55;98805.81;;;20.96;40.26
10176;BME280;18221;38.704;0.152;2023-04-19T09:59:23;98811.63;;;21.00;39.74
10176;BME280;18221;38.704;0.152;2023-04-19T10:01:54;98814.78;;;20.77;39.57
10176;BME280;18221;38.704;0.152;2023-04-19T10:04:23;98816.19;;;20.99;38.92
10176;BME280;18221;38.704;0.152;2023-04-19T10:06:56;98813.28;;;20.94;38.83
10176;BME280;18221;38.704;0.152;2023-04-19T10:09:27;98811.00;;;20.98;39.29
10176;BME280;18221;38.704;0.152;2023-04-19T10:11:58;98807.84;;;21.20;40.09
10176;BME280;18221;38.704;0.152;2023-04-19T10:14:29;98811.38;;;21.21;40.84
10176;BME280;18221;38.704;0.152;2023-04-19T10:17:02;98801.63;;;21.20;40.42
10176;BME280;18221;38.704;0.152;2023-04-19T10:19:34;98800.22;;;21.11;40.29
10176;BME280;18221;38.704;0.152;2023-04-19T10:22:06;98791.94;;;20.79;40.10
10176;BME280;18221;38.704;0.152;2023-04-19T10:24:36;98799.97;;;20.99;40.45
10176;BME280;18221;38.704;0.152;2023-04-19T10:27:09;98802.03;;;21.23;39.97
10176;BME280;18221;38.704;0.152;2023-04-19T10:29:58;98794.50;;;21.45;40.25
10176;BME280;18221;38.704;0.152;2023-04-19T10:32:29;98785.78;;;21.36;40.06
10176;BME280;18221;38.704;0.152;2023-04-19T10:35:02;98782.72;;;21.20;40.72
10176;BME280;18221;38.704;0.152;2023-04-19T10:37:38;98785.19;;;21.28;40.93
10176;BME280;18221;38.704;0.152;2023-04-19T10:40:10;98782.09;;;21.18;40.49
10176;BME280;18221;38.704;0.152;2023-04-19T10:43:15;98783.97;;;21.17;40.39
10176;BME280;18221;38.704;0.152;2023-04-19T10:45:43;98787.69;;;21.29;38.80
10176;BME280;18221;38.704;0.152;2023-04-19T10:48:31;98779.59;;;21.29;39.14
10176;BME280;18221;38.704;0.152;2023-04-19T10:51:01;98787.41;;;21.44;37.14
10176;BME280;18221;38.704;0.152;2023-04-19T10:53:46;98783.41;;;21.09;36.67
10176;BME280;18221;38.704;0.152;2023-04-19T10:56:18;98779.19;;;21.26;36.71
10176;BME280;18221;38.704;0.152;2023-04-19T10:59:15;98784.09;;;21.42;36.53
10176;BME280;18221;38.704;0.152;2023-04-19T11:01:52;98783.25;;;21.41;36.27
10176;BME280;18221;38.704;0.152;2023-04-19T11:07:07;98782.84;;;21.38;35.97
10176;BME280;18221;38.704;0.152;2023-04-19T11:09:37;98775.47;;;21.65;34.67
10176;BME280;18221;38.704;0.152;2023-04-19T11:12:13;98775.69;;;21.63;35.10
10176;BME280;18221;38.704;0.152;2023-04-19T11:14:45;98769.88;;;21.66;35.31
10176;BME280;18221;38.704;0.152;2023-04-19T11:17:18;98765.25;;;21.67;35.65
10176;BME280;18221;38.704;0.152;2023-04-19T11:19:55;98774.09;;;21.93;34.88
10176;BME280;18221;38.704;0.152;2023-04-19T11:22:32;98772.75;;;21.71;32.91
10176;BME280;18221;38.704;0.152;2023-04-19T11:25:09;98759.06;;;21.60;33.66
10176;BME280;18221;38.704;0.152;2023-04-19T11:27:40;98760.63;;;21.80;34.16
10176;BME280;18221;38.704;0.152;2023-04-19T11:30:12;98761.16;;;21.95;33.66
10176;BME280;18221;38.704;0.152;2023-04-19T11:32:48;98745.84;;;21.89;33.87
10176;BME280;18221;38.704;0.152;2023-04-19T11:35:19;98752.06;;;21.83;34.34
10176;BME280;18221;38.704;0.152;2023-04-19T11:37:49;98742.81;;;22.04;34.43
10176;BME280;18221;38.704;0.152;2023-04-19T11:40:19;98744.06;;;21.70;34.57
10176;BME280;18221;38.704;0.152;2023-04-19T11:42:54;98732.69;;;21.93;34.52
10176;BME280;18221;38.704;0.152;2023-04-19T11:45:28;98740.16;;;21.97;33.96
10176;BME280;18221;38.704;0.152;2023-04-19T11:47:57;98731.22;;;22.22;33.43
10176;BME280;18221;38.704;0.152;2023-04-19T11:50:35;98728.25;;;22.05;34.25
10176;BME280;18221;38.704;0.152;2023-04-19T11:53:13;98730.03;;;22.18;34.05
10176;BME280;18221;38.704;0.152;2023-04-19T11:55:46;98723.63;;;22.37;33.41
10176;BME280;18221;38.704;0.152;2023-04-19T11:58:27;98715.47;;;22.19;33.95
10176;BME280;18221;38.704;0.152;2023-04-19T12:01:03;98712.97;;;22.42;33.64
10176;BME280;18221;38.704;0.152;2023-04-19T12:03:33;98715.78;;;22.29;33.97
10176;BME280;18221;38.704;0.152;2023-04-19T12:06:02;98723.44;;;22.32;33.50
10176;BME280;18221;38.704;0.152;2023-04-19T12:08:35;98724.28;;;22.57;34.29
10176;BME280;18221;38.704;0.152;2023-04-19T12:11:05;98718.16;;;22.43;34.42
10176;BME280;18221;38.704;0.152;2023-04-19T12:13:36;98715.91;;;22.65;33.82
10176;BME280;18221;38.704;0.152;2023-04-19T12:16:06;98713.44;;;22.57;33.75
10176;BME280;18221;38.704;0.152;2023-04-19T12:18:46;98712.13;;;22.66;33.55
10176;BME280;18221;38.704;0.152;2023-04-19T12:21:26;98712.47;;;22.94;32.64
10176;BME280;18221;38.704;0.152;2023-04-19T12:23:58;98701.84;;;22.74;32.50
10176;BME280;18221;38.704;0.152;2023-04-19T12:26:27;98699.38;;;22.73;33.48
10176;BME280;18221;38.704;0.152;2023-04-19T12:29:00;98700.84;;;22.69;33.64
10176;BME280;18221;38.704;0.152;2023-04-19T12:31:30;98706.56;;;22.79;33.68
10176;BME280;18221;38.704;0.152;2023-04-19T12:33:59;98700.94;;;22.81;33.27
10176;BME280;18221;38.704;0.152;2023-04-19T12:36:27;98698.72;;;23.07;33.50
10176;BME280;18221;38.704;0.152;2023-04-19T12:38:55;98694.69;;;22.98;33.85
10176;BME280;18221;38.704;0.152;2023-04-19T12:41:24;98691.88;;;23.05;33.07
10176;BME280;18221;38.704;0.152;2023-04-19T12:43:52;98676.78;;;22.97;33.95
10176;BME280;18221;38.704;0.152;2023-04-19T12:46:22;98682.97;;;23.04;34.62
10176;BME280;18221;38.704;0.152;2023-04-19T12:48:51;98679.28;;;22.99;34.64
10176;BME280;18221;38.704;0.152;2023-04-19T12:51:19;98683.72;;;22.93;34.52
10176;BME280;18221;38.704;0.152;2023-04-19T12:53:48;98676.75;;;22.61;33.95
10176;BME280;18221;38.704;0.152;2023-04-19T12:56:17;98676.63;;;22.74;33.49
10176;BME280;18221;38.704;0.152;2023-04-19T12:58:46;98688.53;;;22.91;34.17
10176;BME280;18221;38.704;0.152;2023-04-19T13:01:15;98678.19;;;23.00;33.97
10176;BME280;18221;38.704;0.152;2023-04-19T13:03:46;98675.81;;;22.92;34.04
10176;BME280;18221;38.704;0.152;2023-04-19T13:06:14;98671.75;;;23.01;34.10
10176;BME280;18221;38.704;0.152;2023-04-19T13:08:43;98666.44;;;23.24;33.82
10176;BME280;18221;38.704;0.152;2023-04-19T13:11:11;98671.84;;;23.42;32.40
10176;BME280;18221;38.704;0.152;2023-04-19T13:13:40;98663.78;;;23.54;33.45
10176;BME280;18221;38.704;0.152;2023-04-19T13:16:08;98671.44;;;23.57;33.41
10176;BME280;18221;38.704;0.152;2023-04-19T13:18:51;98662.41;;;23.15;33.06
10176;BME280;18221;38.704;0.152;2023-04-19T13:21:20;98665.66;;;22.87;33.98
10176;BME280;18221;38.704;0.152;2023-04-19T13:23:50;98662.94;;;23.05;34.40
10176;BME280;18221;38.704;0.152;2023-04-19T13:26:18;98658.50;;;22.93;33.69
10176;BME280;18221;38.704;0.152;2023-04-19T13:28:47;98655.66;;;22.88;34.21